Aérodrome :
LOGIN :

S'inscrire | Disclaimer

   EN    FR    IT 

 










Légende :    VFR   VFR Marginal   IFR   IFR Intensif   IFR Très Intensif
Visi : 
Plafond : 
>= 8 km
>= 3000ft
5 à 8 km
1000 à 3000 ft
1500m à 5 km
500 à 1000 ft
800 à 1500m
200 à 500 ft
< 800m
< 200 ft
Symboles :   Orages  Brouillard  Fortes neiges  Fortes précipitations  Vent > 20 kt
SIGMETs :   Divers  Orages  Givrage  Turbulence  Onde Orograph.  Cendres Volcan.







- Altitude de l'aérodrome : 74 ft
- Code IATA : EIN


EHEH - Eindhoven

DERNIER METAR :
  • 191455Z AUTO 30006KT 240V050 9999 FEW075 27/11 Q1017 BLU 34005KT CAVOK

METARs EXPIRÉS :
  • 191355Z AUTO 29006KT 270V020 9999 FEW056 OVC071 26/11 Q1017 BLU 34005KT CAVOK
  • 191325Z AUTO 26005KT 9999 FEW060 SCT076 26/10 Q1017 BLU 34005KT CAVOK
  • 191255Z AUTO 30004KT 190V340 9999 BKN070 27/11 Q1017 BLU 34005KT CAVOK
  • 191225Z AUTO VRB05KT 9999 SCT057 BKN065 OVC072 26/11 Q1018 BLU 34005KT CAVOK

TAF TAF EHEH
Valide du 19 à 12h jusqu'au 20 à 18h UTC


191157Z 1912/2018 33005KT CAVOK
Pas de NOTAMs connus pour ce terrain.



MET'MAP, la Météo Aéronautique d'un coup d'oeil ! - Copyright ORBIFLY Décembre 2007 - Disclaimer

ORBIFLY MET'MAP TEAM :

Programmation & Développement : Alexandra Zaïnal
Conception & Développement : Baudouin d'Aumeries
Co-Programmation & Développement : Marc-Olivier Méhu
Soutien technique & logistique : Manuel Goepfert

Contact : metmap@orbifly.com




SOURCES & CREDITS :

   NOAA